sensor_id;sensor_type;location;lat;lon;timestamp;temperature;humidity
59977;DHT22;45837;51.076;3.578;2023-02-28T00:00:32;20.30;47.40
59977;DHT22;45837;51.076;3.578;2023-02-28T00:02:57;20.30;47.70
59977;DHT22;45837;51.076;3.578;2023-02-28T00:05:24;20.30;48.20
59977;DHT22;45837;51.076;3.578;2023-02-28T00:07:49;20.20;47.50
59977;DHT22;45837;51.076;3.578;2023-02-28T00:10:17;20.20;48.30
59977;DHT22;45837;51.076;3.578;2023-02-28T00:12:47;20.20;47.40
59977;DHT22;45837;51.076;3.578;2023-02-28T00:15:12;20.20;47.40
59977;DHT22;45837;51.076;3.578;2023-02-28T00:17:38;20.10;48.20
59977;DHT22;45837;51.076;3.578;2023-02-28T00:20:05;20.10;48.30
59977;DHT22;45837;51.076;3.578;2023-02-28T00:22:33;20.10;47.50
59977;DHT22;45837;51.076;3.578;2023-02-28T00:24:59;20.00;46.70
59977;DHT22;45837;51.076;3.578;2023-02-28T00:27:25;20.00;48.50
59977;DHT22;45837;51.076;3.578;2023-02-28T00:29:51;20.00;46.80
59977;DHT22;45837;51.076;3.578;2023-02-28T00:32:16;20.10;48.20
59977;DHT22;45837;51.076;3.578;2023-02-28T00:34:44;20.00;48.00
59977;DHT22;45837;51.076;3.578;2023-02-28T00:37:09;20.00;48.30
59977;DHT22;45837;51.076;3.578;2023-02-28T00:39:37;19.90;47.80
59977;DHT22;45837;51.076;3.578;2023-02-28T00:42:03;19.90;47.90
59977;DHT22;45837;51.076;3.578;2023-02-28T00:44:30;19.90;47.80
59977;DHT22;45837;51.076;3.578;2023-02-28T00:46:56;19.90;47.70
59977;DHT22;45837;51.076;3.578;2023-02-28T00:49:24;19.80;46.90
59977;DHT22;45837;51.076;3.578;2023-02-28T00:51:50;19.80;47.00
59977;DHT22;45837;51.076;3.578;2023-02-28T00:54:16;19.80;46.90
59977;DHT22;45837;51.076;3.578;2023-02-28T00:56:41;19.80;46.90
59977;DHT22;45837;51.076;3.578;2023-02-28T00:59:07;19.80;46.80
59977;DHT22;45837;51.076;3.578;2023-02-28T01:01:33;19.90;47.60
59977;DHT22;45837;51.076;3.578;2023-02-28T01:03:59;19.80;46.80
59977;DHT22;45837;51.076;3.578;2023-02-28T01:06:25;19.80;46.80
59977;DHT22;45837;51.076;3.578;2023-02-28T01:08:50;19.80;46.80
59977;DHT22;45837;51.076;3.578;2023-02-28T01:11:16;19.80;46.80
59977;DHT22;45837;51.076;3.578;2023-02-28T01:13:43;19.70;46.80
59977;DHT22;45837;51.076;3.578;2023-02-28T01:16:11;19.70;46.70
59977;DHT22;45837;51.076;3.578;2023-02-28T01:18:37;19.70;46.70
59977;DHT22;45837;51.076;3.578;2023-02-28T01:21:06;19.70;46.80
59977;DHT22;45837;51.076;3.578;2023-02-28T01:23:32;19.70;46.80
59977;DHT22;45837;51.076;3.578;2023-02-28T01:26:03;19.70;46.70
59977;DHT22;45837;51.076;3.578;2023-02-28T01:28:29;19.70;46.70
59977;DHT22;45837;51.076;3.578;2023-02-28T01:30:56;19.60;46.60
59977;DHT22;45837;51.076;3.578;2023-02-28T01:33:21;19.60;46.70
59977;DHT22;45837;51.076;3.578;2023-02-28T01:35:47;19.60;46.70
59977;DHT22;45837;51.076;3.578;2023-02-28T01:38:13;19.60;46.70
59977;DHT22;45837;51.076;3.578;2023-02-28T01:40:38;19.60;46.70
59977;DHT22;45837;51.076;3.578;2023-02-28T01:43:07;19.60;46.70
59977;DHT22;45837;51.076;3.578;2023-02-28T01:45:42;19.60;46.70
59977;DHT22;45837;51.076;3.578;2023-02-28T01:48:08;19.50;46.70
59977;DHT22;45837;51.076;3.578;2023-02-28T01:50:36;19.50;46.70
59977;DHT22;45837;51.076;3.578;2023-02-28T01:53:04;19.50;46.70
59977;DHT22;45837;51.076;3.578;2023-02-28T01:55:32;19.50;46.80
59977;DHT22;45837;51.076;3.578;2023-02-28T01:57:59;19.50;46.70
59977;DHT22;45837;51.076;3.578;2023-02-28T02:00:26;19.40;46.60
59977;DHT22;45837;51.076;3.578;2023-02-28T02:02:54;19.90;46.90
59977;DHT22;45837;51.076;3.578;2023-02-28T02:05:22;19.40;46.60
59977;DHT22;45837;51.076;3.578;2023-02-28T02:07:52;19.40;46.60
59977;DHT22;45837;51.076;3.578;2023-02-28T02:10:20;19.40;46.60
59977;DHT22;45837;51.076;3.578;2023-02-28T02:15:36;19.30;46.60
59977;DHT22;45837;51.076;3.578;2023-02-28T02:18:09;19.30;46.60
59977;DHT22;45837;51.076;3.578;2023-02-28T02:25:45;19.30;46.70
59977;DHT22;45837;51.076;3.578;2023-02-28T02:36:18;19.30;46.70
59977;DHT22;45837;51.076;3.578;2023-02-28T02:38:57;19.20;47.30
59977;DHT22;45837;51.076;3.578;2023-02-28T02:41:36;19.20;46.80
59977;DHT22;45837;51.076;3.578;2023-02-28T02:44:16;19.20;46.80
59977;DHT22;45837;51.076;3.578;2023-02-28T02:46:43;19.20;46.80
59977;DHT22;45837;51.076;3.578;2023-02-28T02:49:11;19.10;46.70
59977;DHT22;45837;51.076;3.578;2023-02-28T02:51:38;19.20;46.70
59977;DHT22;45837;51.076;3.578;2023-02-28T02:54:08;19.10;46.70
59977;DHT22;45837;51.076;3.578;2023-02-28T02:56:33;19.10;46.70
59977;DHT22;45837;51.076;3.578;2023-02-28T02:59:04;19.20;47.30
59977;DHT22;45837;51.076;3.578;2023-02-28T03:01:31;19.10;46.60
59977;DHT22;45837;51.076;3.578;2023-02-28T03:03:59;19.10;46.50
59977;DHT22;45837;51.076;3.578;2023-02-28T03:06:26;19.10;46.50
59977;DHT22;45837;51.076;3.578;2023-02-28T03:08:52;19.10;46.50
59977;DHT22;45837;51.076;3.578;2023-02-28T03:11:18;19.10;46.40
59977;DHT22;45837;51.076;3.578;2023-02-28T03:26:36;19.00;46.30
59977;DHT22;45837;51.076;3.578;2023-02-28T03:29:05;19.00;46.30
59977;DHT22;45837;51.076;3.578;2023-02-28T03:31:39;19.00;46.30
59977;DHT22;45837;51.076;3.578;2023-02-28T03:36:43;19.00;46.80
59977;DHT22;45837;51.076;3.578;2023-02-28T03:39:20;18.90;46.20
59977;DHT22;45837;51.076;3.578;2023-02-28T03:41:57;18.90;46.20
59977;DHT22;45837;51.076;3.578;2023-02-28T03:44:29;18.90;46.20
59977;DHT22;45837;51.076;3.578;2023-02-28T03:46:57;18.90;46.20
59977;DHT22;45837;51.076;3.578;2023-02-28T03:49:24;18.90;46.20
59977;DHT22;45837;51.076;3.578;2023-02-28T03:51:51;18.90;46.20
59977;DHT22;45837;51.076;3.578;2023-02-28T03:54:22;18.90;46.20
59977;DHT22;45837;51.076;3.578;2023-02-28T03:56:51;18.90;46.20
59977;DHT22;45837;51.076;3.578;2023-02-28T03:59:26;18.80;46.20
59977;DHT22;45837;51.076;3.578;2023-02-28T04:01:53;18.80;46.20
59977;DHT22;45837;51.076;3.578;2023-02-28T04:04:20;18.80;46.20
59977;DHT22;45837;51.076;3.578;2023-02-28T04:06:47;18.80;46.20
59977;DHT22;45837;51.076;3.578;2023-02-28T04:09:14;18.80;46.20
59977;DHT22;45837;51.076;3.578;2023-02-28T04:11:50;18.70;46.10
59977;DHT22;45837;51.076;3.578;2023-02-28T04:14:18;18.80;46.70
59977;DHT22;45837;51.076;3.578;2023-02-28T04:16:44;18.80;46.20
59977;DHT22;45837;51.076;3.578;2023-02-28T04:19:11;18.80;46.20
59977;DHT22;45837;51.076;3.578;2023-02-28T04:21:39;18.80;46.20
59977;DHT22;45837;51.076;3.578;2023-02-28T04:24:05;18.80;46.20
59977;DHT22;45837;51.076;3.578;2023-02-28T04:26:35;18.70;46.20
59977;DHT22;45837;51.076;3.578;2023-02-28T04:29:01;18.70;46.30
59977;DHT22;45837;51.076;3.578;2023-02-28T04:31:26;18.70;46.30
59977;DHT22;45837;51.076;3.578;2023-02-28T04:33:52;18.70;46.20
59977;DHT22;45837;51.076;3.578;2023-02-28T04:36:18;18.70;46.20
59977;DHT22;45837;51.076;3.578;2023-02-28T04:38:44;18.70;46.30
59977;DHT22;45837;51.076;3.578;2023-02-28T04:41:10;18.70;46.30
59977;DHT22;45837;51.076;3.578;2023-02-28T04:43:36;18.70;46.90
59977;DHT22;45837;51.076;3.578;2023-02-28T04:46:03;18.50;46.20
59977;DHT22;45837;51.076;3.578;2023-02-28T04:48:30;18.60;46.20
59977;DHT22;45837;51.076;3.578;2023-02-28T04:51:15;18.60;46.20
59977;DHT22;45837;51.076;3.578;2023-02-28T04:53:41;18.60;46.20
59977;DHT22;45837;51.076;3.578;2023-02-28T04:56:08;18.60;46.30
59977;DHT22;45837;51.076;3.578;2023-02-28T04:58:35;18.60;46.30
59977;DHT22;45837;51.076;3.578;2023-02-28T05:01:04;18.60;46.30
59977;DHT22;45837;51.076;3.578;2023-02-28T05:03:30;18.60;46.30
59977;DHT22;45837;51.076;3.578;2023-02-28T05:05:56;18.60;46.30
59977;DHT22;45837;51.076;3.578;2023-02-28T05:08:21;18.50;46.20
59977;DHT22;45837;51.076;3.578;2023-02-28T05:10:47;18.60;46.20
59977;DHT22;45837;51.076;3.578;2023-02-28T05:13:13;18.50;46.20
59977;DHT22;45837;51.076;3.578;2023-02-28T05:15:38;18.50;46.20
59977;DHT22;45837;51.076;3.578;2023-02-28T05:18:04;18.50;46.20
59977;DHT22;45837;51.076;3.578;2023-02-28T05:20:29;18.50;46.10
59977;DHT22;45837;51.076;3.578;2023-02-28T05:23:01;18.50;46.30
59977;DHT22;45837;51.076;3.578;2023-02-28T05:25:30;18.50;46.30
59977;DHT22;45837;51.076;3.578;2023-02-28T05:27:56;18.50;46.30
59977;DHT22;45837;51.076;3.578;2023-02-28T05:30:21;18.50;46.30
59977;DHT22;45837;51.076;3.578;2023-02-28T05:32:49;18.50;46.20
59977;DHT22;45837;51.076;3.578;2023-02-28T05:35:15;18.50;46.30
59977;DHT22;45837;51.076;3.578;2023-02-28T05:37:41;18.50;46.50
59977;DHT22;45837;51.076;3.578;2023-02-28T05:40:07;18.60;46.80
59977;DHT22;45837;51.076;3.578;2023-02-28T05:42:35;18.70;46.90
59977;DHT22;45837;51.076;3.578;2023-02-28T05:45:01;18.70;47.60
59977;DHT22;45837;51.076;3.578;2023-02-28T05:47:27;18.80;48.30
59977;DHT22;45837;51.076;3.578;2023-02-28T05:49:53;18.80;47.70
59977;DHT22;45837;51.076;3.578;2023-02-28T05:52:19;18.80;47.70
59977;DHT22;45837;51.076;3.578;2023-02-28T05:54:45;18.80;48.00
59977;DHT22;45837;51.076;3.578;2023-02-28T05:57:11;18.80;48.20
59977;DHT22;45837;51.076;3.578;2023-02-28T05:59:37;18.90;48.30
59977;DHT22;45837;51.076;3.578;2023-02-28T06:02:05;18.90;48.30
59977;DHT22;45837;51.076;3.578;2023-02-28T06:04:31;19.00;48.30
59977;DHT22;45837;51.076;3.578;2023-02-28T06:06:57;19.00;48.40
59977;DHT22;45837;51.076;3.578;2023-02-28T06:09:22;19.20;48.60
59977;DHT22;45837;51.076;3.578;2023-02-28T06:11:48;19.20;48.60
59977;DHT22;45837;51.076;3.578;2023-02-28T06:14:15;19.30;48.60
59977;DHT22;45837;51.076;3.578;2023-02-28T06:16:41;19.30;47.20
59977;DHT22;45837;51.076;3.578;2023-02-28T06:19:06;19.40;46.20
59977;DHT22;45837;51.076;3.578;2023-02-28T06:21:32;19.50;45.10
59977;DHT22;45837;51.076;3.578;2023-02-28T06:23:58;19.60;45.10
59977;DHT22;45837;51.076;3.578;2023-02-28T06:26:24;19.60;45.00
59977;DHT22;45837;51.076;3.578;2023-02-28T06:28:49;19.70;45.00
59977;DHT22;45837;51.076;3.578;2023-02-28T06:31:16;19.80;44.90
59977;DHT22;45837;51.076;3.578;2023-02-28T06:33:43;19.90;44.90
59977;DHT22;45837;51.076;3.578;2023-02-28T06:36:09;19.90;44.90
59977;DHT22;45837;51.076;3.578;2023-02-28T06:38:35;19.90;45.40
59977;DHT22;45837;51.076;3.578;2023-02-28T06:41:02;20.00;44.80
59977;DHT22;45837;51.076;3.578;2023-02-28T06:43:29;19.90;44.70
59977;DHT22;45837;51.076;3.578;2023-02-28T06:45:55;20.00;45.50
59977;DHT22;45837;51.076;3.578;2023-02-28T06:48:21;19.90;44.80
59977;DHT22;45837;51.076;3.578;2023-02-28T06:50:47;19.90;44.90
59977;DHT22;45837;51.076;3.578;2023-02-28T06:53:12;19.90;44.90
59977;DHT22;45837;51.076;3.578;2023-02-28T06:55:38;19.80;44.90
59977;DHT22;45837;51.076;3.578;2023-02-28T06:58:04;19.80;45.00
59977;DHT22;45837;51.076;3.578;2023-02-28T07:00:43;19.80;45.10
59977;DHT22;45837;51.076;3.578;2023-02-28T07:03:09;19.80;45.10
59977;DHT22;45837;51.076;3.578;2023-02-28T07:05:36;19.70;45.10
59977;DHT22;45837;51.076;3.578;2023-02-28T07:08:02;19.80;45.80
59977;DHT22;45837;51.076;3.578;2023-02-28T07:10:28;19.70;45.40
59977;DHT22;45837;51.076;3.578;2023-02-28T07:12:54;19.60;45.40
59977;DHT22;45837;51.076;3.578;2023-02-28T07:15:20;19.60;45.50
59977;DHT22;45837;51.076;3.578;2023-02-28T07:17:45;19.60;45.60
59977;DHT22;45837;51.076;3.578;2023-02-28T07:20:11;19.60;45.70
59977;DHT22;45837;51.076;3.578;2023-02-28T07:22:37;19.50;45.70
59977;DHT22;45837;51.076;3.578;2023-02-28T07:25:04;19.50;45.70
59977;DHT22;45837;51.076;3.578;2023-02-28T07:27:30;19.50;45.80
59977;DHT22;45837;51.076;3.578;2023-02-28T07:29:56;19.40;45.90
59977;DHT22;45837;51.076;3.578;2023-02-28T07:32:21;19.40;45.90
59977;DHT22;45837;51.076;3.578;2023-02-28T07:34:47;19.40;45.90
59977;DHT22;45837;51.076;3.578;2023-02-28T07:37:14;19.40;45.90
59977;DHT22;45837;51.076;3.578;2023-02-28T07:39:39;19.40;45.90
59977;DHT22;45837;51.076;3.578;2023-02-28T07:42:07;19.40;45.90
59977;DHT22;45837;51.076;3.578;2023-02-28T07:44:35;19.30;45.90
59977;DHT22;45837;51.076;3.578;2023-02-28T07:47:11;19.30;46.00
59977;DHT22;45837;51.076;3.578;2023-02-28T07:49:37;19.30;46.10
59977;DHT22;45837;51.076;3.578;2023-02-28T07:52:06;19.30;46.10
59977;DHT22;45837;51.076;3.578;2023-02-28T07:54:32;19.20;46.20
59977;DHT22;45837;51.076;3.578;2023-02-28T07:56:58;19.20;46.30
59977;DHT22;45837;51.076;3.578;2023-02-28T07:59:24;19.20;46.30
59977;DHT22;45837;51.076;3.578;2023-02-28T08:01:50;19.20;46.40
59977;DHT22;45837;51.076;3.578;2023-02-28T08:04:16;19.10;46.40
59977;DHT22;45837;51.076;3.578;2023-02-28T08:06:42;19.10;46.40
59977;DHT22;45837;51.076;3.578;2023-02-28T08:09:07;19.00;46.40
59977;DHT22;45837;51.076;3.578;2023-02-28T08:11:33;19.10;46.50
59977;DHT22;45837;51.076;3.578;2023-02-28T08:13:59;19.00;46.40
59977;DHT22;45837;51.076;3.578;2023-02-28T08:16:24;19.00;46.50
59977;DHT22;45837;51.076;3.578;2023-02-28T08:18:51;19.00;46.50
59977;DHT22;45837;51.076;3.578;2023-02-28T08:21:17;19.00;46.50
59977;DHT22;45837;51.076;3.578;2023-02-28T08:23:42;19.00;46.50
59977;DHT22;45837;51.076;3.578;2023-02-28T08:26:08;19.00;46.50
59977;DHT22;45837;51.076;3.578;2023-02-28T08:28:34;18.90;46.50
59977;DHT22;45837;51.076;3.578;2023-02-28T08:31:00;18.90;46.60
59977;DHT22;45837;51.076;3.578;2023-02-28T08:33:26;18.90;46.80
59977;DHT22;45837;51.076;3.578;2023-02-28T08:35:56;18.90;46.90
59977;DHT22;45837;51.076;3.578;2023-02-28T08:38:22;18.90;47.00
59977;DHT22;45837;51.076;3.578;2023-02-28T08:40:48;18.80;47.00
59977;DHT22;45837;51.076;3.578;2023-02-28T08:43:14;18.80;47.00
59977;DHT22;45837;51.076;3.578;2023-02-28T08:45:39;18.80;47.10
59977;DHT22;45837;51.076;3.578;2023-02-28T08:48:05;18.80;47.00
59977;DHT22;45837;51.076;3.578;2023-02-28T08:50:31;18.80;47.10
59977;DHT22;45837;51.076;3.578;2023-02-28T08:52:57;18.80;47.10
59977;DHT22;45837;51.076;3.578;2023-02-28T08:55:23;18.80;47.10
59977;DHT22;45837;51.076;3.578;2023-02-28T08:57:49;18.80;47.10
59977;DHT22;45837;51.076;3.578;2023-02-28T09:00:14;18.80;47.10
59977;DHT22;45837;51.076;3.578;2023-02-28T09:02:40;18.80;47.10
59977;DHT22;45837;51.076;3.578;2023-02-28T09:05:08;18.80;47.10
59977;DHT22;45837;51.076;3.578;2023-02-28T09:07:33;18.80;47.10
59977;DHT22;45837;51.076;3.578;2023-02-28T09:09:59;18.80;47.10
59977;DHT22;45837;51.076;3.578;2023-02-28T09:12:25;18.70;47.00
59977;DHT22;45837;51.076;3.578;2023-02-28T09:14:51;18.70;47.00
59977;DHT22;45837;51.076;3.578;2023-02-28T09:17:17;18.70;47.00
59977;DHT22;45837;51.076;3.578;2023-02-28T09:19:43;18.70;47.10
59977;DHT22;45837;51.076;3.578;2023-02-28T09:22:09;18.70;47.10
59977;DHT22;45837;51.076;3.578;2023-02-28T09:24:35;18.70;47.00
59977;DHT22;45837;51.076;3.578;2023-02-28T09:27:01;18.70;47.10
59977;DHT22;45837;51.076;3.578;2023-02-28T09:29:27;18.60;47.10
59977;DHT22;45837;51.076;3.578;2023-02-28T09:31:53;18.60;47.10
59977;DHT22;45837;51.076;3.578;2023-02-28T09:34:19;18.60;47.10
59977;DHT22;45837;51.076;3.578;2023-02-28T09:36:45;18.60;47.10
59977;DHT22;45837;51.076;3.578;2023-02-28T09:39:11;18.60;47.10
59977;DHT22;45837;51.076;3.578;2023-02-28T09:41:39;18.60;47.10
59977;DHT22;45837;51.076;3.578;2023-02-28T09:44:13;18.60;47.10
59977;DHT22;45837;51.076;3.578;2023-02-28T09:46:43;18.60;47.20
59977;DHT22;45837;51.076;3.578;2023-02-28T09:49:14;18.60;47.20
59977;DHT22;45837;51.076;3.578;2023-02-28T09:51:44;18.50;47.10
59977;DHT22;45837;51.076;3.578;2023-02-28T09:54:21;18.50;47.10
59977;DHT22;45837;51.076;3.578;2023-02-28T09:56:51;18.50;47.10
59977;DHT22;45837;51.076;3.578;2023-02-28T10:01:56;18.50;47.10
59977;DHT22;45837;51.076;3.578;2023-02-28T10:07:00;18.50;47.10
59977;DHT22;45837;51.076;3.578;2023-02-28T10:09:30;18.50;47.10
59977;DHT22;45837;51.076;3.578;2023-02-28T10:11:59;18.50;47.00
59977;DHT22;45837;51.076;3.578;2023-02-28T10:14:26;18.50;47.00
59977;DHT22;45837;51.076;3.578;2023-02-28T10:22:31;18.40;47.00
59977;DHT22;45837;51.076;3.578;2023-02-28T10:24:35;18.40;46.90
59977;DHT22;45837;51.076;3.578;2023-02-28T10:27:12;18.40;47.40
59977;DHT22;45837;51.076;3.578;2023-02-28T10:29:38;18.40;47.40
59977;DHT22;45837;51.076;3.578;2023-02-28T10:32:05;18.40;47.60
59977;DHT22;45837;51.076;3.578;2023-02-28T10:34:31;17.10;46.30
59977;DHT22;45837;51.076;3.578;2023-02-28T10:36:57;18.30;46.80
59977;DHT22;45837;51.076;3.578;2023-02-28T10:39:40;18.40;47.70
59977;DHT22;45837;51.076;3.578;2023-02-28T10:42:19;18.30;46.80
59977;DHT22;45837;51.076;3.578;2023-02-28T10:44:45;18.30;46.70
59977;DHT22;45837;51.076;3.578;2023-02-28T10:47:14;18.40;46.80
59977;DHT22;45837;51.076;3.578;2023-02-28T10:49:45;18.30;46.70
59977;DHT22;45837;51.076;3.578;2023-02-28T10:52:12;18.30;46.70
59977;DHT22;45837;51.076;3.578;2023-02-28T10:54:38;18.30;46.70
59977;DHT22;45837;51.076;3.578;2023-02-28T10:59:32;18.30;46.70
59977;DHT22;45837;51.076;3.578;2023-02-28T11:01:58;19.20;47.20
59977;DHT22;45837;51.076;3.578;2023-02-28T11:09:24;18.50;47.30
59977;DHT22;45837;51.076;3.578;2023-02-28T11:11:52;18.30;47.30
59977;DHT22;45837;51.076;3.578;2023-02-28T11:14:19;18.30;46.50
59977;DHT22;45837;51.076;3.578;2023-02-28T11:16:46;18.20;46.40
59977;DHT22;45837;51.076;3.578;2023-02-28T11:19:19;18.30;47.30
59977;DHT22;45837;51.076;3.578;2023-02-28T11:21:48;18.30;47.00
59977;DHT22;45837;51.076;3.578;2023-02-28T11:26:44;18.30;47.70
59977;DHT22;45837;51.076;3.578;2023-02-28T11:29:21;18.30;46.30
59977;DHT22;45837;51.076;3.578;2023-02-28T11:34:32;18.50;46.90
59977;DHT22;45837;51.076;3.578;2023-02-28T11:36:58;18.30;46.20
59977;DHT22;45837;51.076;3.578;2023-02-28T11:39:25;18.30;45.90
59977;DHT22;45837;51.076;3.578;2023-02-28T11:47:08;18.40;46.10
59977;DHT22;45837;51.076;3.578;2023-02-28T12:00:06;18.40;45.30
59977;DHT22;45837;51.076;3.578;2023-02-28T12:03:00;18.40;45.60
59977;DHT22;45837;51.076;3.578;2023-02-28T12:05:30;18.40;45.20
59977;DHT22;45837;51.076;3.578;2023-02-28T12:08:06;18.40;44.60
59977;DHT22;45837;51.076;3.578;2023-02-28T12:10:42;18.40;44.40
59977;DHT22;45837;51.076;3.578;2023-02-28T12:13:24;18.40;44.50
59977;DHT22;45837;51.076;3.578;2023-02-28T12:26:26;18.40;44.50
59977;DHT22;45837;51.076;3.578;2023-02-28T12:28:57;18.40;43.90
59977;DHT22;45837;51.076;3.578;2023-02-28T12:31:26;18.40;44.80
59977;DHT22;45837;51.076;3.578;2023-02-28T12:33:56;18.40;44.60
59977;DHT22;45837;51.076;3.578;2023-02-28T12:36:24;18.50;44.50
59977;DHT22;45837;51.076;3.578;2023-02-28T12:38:53;18.40;43.90
59977;DHT22;45837;51.076;3.578;2023-02-28T12:43:48;18.40;45.20
59977;DHT22;45837;51.076;3.578;2023-02-28T12:48:55;18.40;44.70
59977;DHT22;45837;51.076;3.578;2023-02-28T12:51:22;18.30;44.70
59977;DHT22;45837;51.076;3.578;2023-02-28T12:59:01;18.30;44.00
59977;DHT22;45837;51.076;3.578;2023-02-28T13:09:17;18.00;44.40
59977;DHT22;45837;51.076;3.578;2023-02-28T13:11:44;18.30;44.70
59977;DHT22;45837;51.076;3.578;2023-02-28T13:17:22;18.30;44.30
59977;DHT22;45837;51.076;3.578;2023-02-28T13:22:10;18.30;45.00
59977;DHT22;45837;51.076;3.578;2023-02-28T13:24:43;18.30;44.30
59977;DHT22;45837;51.076;3.578;2023-02-28T13:29:35;18.20;43.20
59977;DHT22;45837;51.076;3.578;2023-02-28T13:34:40;18.40;43.70
59977;DHT22;45837;51.076;3.578;2023-02-28T13:47:29;18.20;42.80
59977;DHT22;45837;51.076;3.578;2023-02-28T13:50:15;18.10;42.40
59977;DHT22;45837;51.076;3.578;2023-02-28T13:52:46;18.10;42.90
59977;DHT22;45837;51.076;3.578;2023-02-28T13:58:12;18.10;41.70
59977;DHT22;45837;51.076;3.578;2023-02-28T14:05:44;18.10;41.90
59977;DHT22;45837;51.076;3.578;2023-02-28T14:08:12;18.00;41.80
59977;DHT22;45837;51.076;3.578;2023-02-28T14:10:45;18.00;41.50
59977;DHT22;45837;51.076;3.578;2023-02-28T14:13:13;18.00;41.40
59977;DHT22;45837;51.076;3.578;2023-02-28T14:20:39;18.00;41.00
59977;DHT22;45837;51.076;3.578;2023-02-28T14:25:45;17.90;41.20
59977;DHT22;45837;51.076;3.578;2023-02-28T14:36:09;17.90;40.50
59977;DHT22;45837;51.076;3.578;2023-02-28T14:38:39;17.90;40.50
59977;DHT22;45837;51.076;3.578;2023-02-28T14:41:12;17.90;40.00
59977;DHT22;45837;51.076;3.578;2023-02-28T14:43:46;17.90;40.30
59977;DHT22;45837;51.076;3.578;2023-02-28T14:46:12;17.80;40.40
59977;DHT22;45837;51.076;3.578;2023-02-28T14:48:39;17.80;40.50
59977;DHT22;45837;51.076;3.578;2023-02-28T14:51:04;17.80;40.20
59977;DHT22;45837;51.076;3.578;2023-02-28T14:53:35;17.80;40.40
59977;DHT22;45837;51.076;3.578;2023-02-28T14:56:01;17.80;41.10
59977;DHT22;45837;51.076;3.578;2023-02-28T15:00:53;17.80;40.30
59977;DHT22;45837;51.076;3.578;2023-02-28T15:05:58;17.80;40.60
59977;DHT22;45837;51.076;3.578;2023-02-28T15:08:25;17.80;40.30
59977;DHT22;45837;51.076;3.578;2023-02-28T15:10:55;17.80;40.40
59977;DHT22;45837;51.076;3.578;2023-02-28T15:13:21;17.80;40.60
59977;DHT22;45837;51.076;3.578;2023-02-28T15:15:50;17.70;40.30
59977;DHT22;45837;51.076;3.578;2023-02-28T15:20:49;17.70;40.60
59977;DHT22;45837;51.076;3.578;2023-02-28T15:23:16;17.70;40.70
59977;DHT22;45837;51.076;3.578;2023-02-28T15:25:42;17.70;40.60
59977;DHT22;45837;51.076;3.578;2023-02-28T15:28:10;17.70;40.60
59977;DHT22;45837;51.076;3.578;2023-02-28T15:30:37;17.70;40.60
59977;DHT22;45837;51.076;3.578;2023-02-28T15:33:19;17.70;40.50
59977;DHT22;45837;51.076;3.578;2023-02-28T15:35:45;17.70;40.50
59977;DHT22;45837;51.076;3.578;2023-02-28T15:38:26;17.70;40.40
59977;DHT22;45837;51.076;3.578;2023-02-28T15:40:53;17.70;40.40
59977;DHT22;45837;51.076;3.578;2023-02-28T15:43:32;17.70;40.40
59977;DHT22;45837;51.076;3.578;2023-02-28T15:45:59;17.70;40.30
59977;DHT22;45837;51.076;3.578;2023-02-28T15:50:55;17.70;40.00
59977;DHT22;45837;51.076;3.578;2023-02-28T15:53:23;17.70;40.20
59977;DHT22;45837;51.076;3.578;2023-02-28T15:56:00;17.60;40.00
59977;DHT22;45837;51.076;3.578;2023-02-28T15:58:26;17.60;39.80
59977;DHT22;45837;51.076;3.578;2023-02-28T16:01:08;17.70;39.90
59977;DHT22;45837;51.076;3.578;2023-02-28T16:03:37;17.60;39.90
59977;DHT22;45837;51.076;3.578;2023-02-28T16:06:08;17.60;40.20
59977;DHT22;45837;51.076;3.578;2023-02-28T16:08:34;17.60;41.10
59977;DHT22;45837;51.076;3.578;2023-02-28T16:10:59;17.70;39.90
59977;DHT22;45837;51.076;3.578;2023-02-28T16:13:25;17.60;39.60
59977;DHT22;45837;51.076;3.578;2023-02-28T16:15:51;17.70;39.50
59977;DHT22;45837;51.076;3.578;2023-02-28T16:18:16;17.70;39.50
59977;DHT22;45837;51.076;3.578;2023-02-28T16:20:42;17.80;39.70
59977;DHT22;45837;51.076;3.578;2023-02-28T16:23:10;17.80;39.70
59977;DHT22;45837;51.076;3.578;2023-02-28T16:28:01;17.90;39.70
59977;DHT22;45837;51.076;3.578;2023-02-28T16:30:28;17.90;39.80
59977;DHT22;45837;51.076;3.578;2023-02-28T16:32:56;17.90;39.80
59977;DHT22;45837;51.076;3.578;2023-02-28T16:35:22;18.00;39.90
59977;DHT22;45837;51.076;3.578;2023-02-28T16:37:48;18.00;39.90
59977;DHT22;45837;51.076;3.578;2023-02-28T16:40:16;18.10;40.10
59977;DHT22;45837;51.076;3.578;2023-02-28T16:42:43;18.10;40.10
59977;DHT22;45837;51.076;3.578;2023-02-28T16:45:14;18.30;40.10
59977;DHT22;45837;51.076;3.578;2023-02-28T16:47:40;18.40;40.00
59977;DHT22;45837;51.076;3.578;2023-02-28T16:50:12;18.40;40.10
59977;DHT22;45837;51.076;3.578;2023-02-28T16:52:38;18.60;40.20
59977;DHT22;45837;51.076;3.578;2023-02-28T16:55:04;18.70;40.10
59977;DHT22;45837;51.076;3.578;2023-02-28T16:57:29;18.80;40.00
59977;DHT22;45837;51.076;3.578;2023-02-28T16:59:55;18.90;40.00
59977;DHT22;45837;51.076;3.578;2023-02-28T17:02:21;19.00;40.00
59977;DHT22;45837;51.076;3.578;2023-02-28T17:04:46;19.10;40.10
59977;DHT22;45837;51.076;3.578;2023-02-28T17:07:13;19.20;40.40
59977;DHT22;45837;51.076;3.578;2023-02-28T17:09:40;19.20;40.60
59977;DHT22;45837;51.076;3.578;2023-02-28T17:12:06;19.30;40.60
59977;DHT22;45837;51.076;3.578;2023-02-28T17:14:31;19.40;40.70
59977;DHT22;45837;51.076;3.578;2023-02-28T17:16:57;19.50;41.10
59977;DHT22;45837;51.076;3.578;2023-02-28T17:19:23;19.50;41.30
59977;DHT22;45837;51.076;3.578;2023-02-28T17:21:48;19.60;40.90
59977;DHT22;45837;51.076;3.578;2023-02-28T17:24:14;19.70;41.50
59977;DHT22;45837;51.076;3.578;2023-02-28T17:26:40;19.70;41.50
59977;DHT22;45837;51.076;3.578;2023-02-28T17:29:24;19.80;41.70
59977;DHT22;45837;51.076;3.578;2023-02-28T17:31:50;19.90;42.10
59977;DHT22;45837;51.076;3.578;2023-02-28T17:34:16;20.00;41.40
59977;DHT22;45837;51.076;3.578;2023-02-28T17:36:47;20.00;41.40
59977;DHT22;45837;51.076;3.578;2023-02-28T17:39:13;20.20;41.50
59977;DHT22;45837;51.076;3.578;2023-02-28T17:41:40;20.20;41.50
59977;DHT22;45837;51.076;3.578;2023-02-28T17:44:07;20.20;41.60
59977;DHT22;45837;51.076;3.578;2023-02-28T17:46:33;20.20;41.90
59977;DHT22;45837;51.076;3.578;2023-02-28T17:48:59;20.30;42.10
59977;DHT22;45837;51.076;3.578;2023-02-28T17:51:25;20.30;42.00
59977;DHT22;45837;51.076;3.578;2023-02-28T17:53:51;20.40;41.40
59977;DHT22;45837;51.076;3.578;2023-02-28T17:56:21;20.50;41.10
59977;DHT22;45837;51.076;3.578;2023-02-28T17:58:47;20.50;41.00
59977;DHT22;45837;51.076;3.578;2023-02-28T18:01:12;20.50;40.90
59977;DHT22;45837;51.076;3.578;2023-02-28T18:03:38;20.60;40.60
59977;DHT22;45837;51.076;3.578;2023-02-28T18:06:04;20.60;40.50
59977;DHT22;45837;51.076;3.578;2023-02-28T18:08:30;20.70;40.10